Terminal Aerodrome Forecast
Issued by NWS Jacksonville, FL

Home | Current Version | Previous Version | Text Only | Print | Product List | Glossary On
Versions: 1 2 3 4 5 6 7 8 9 10 11 12 13 14 15 16 17 18 19
000
FTUS42 KJAX 241100
TAFGNV
TAF
KGNV 241120Z 2412/2512 19008KT P6SM SCT015 BKN025 WS015/22035KT
      TEMPO 2412/2414 OVC015
     FM241500 21012KT P6SM VCSH BKN035
     FM241800 21011KT P6SM VCSH BKN025=

USA.gov is the U.S. government's official web portal to all federal, state and local government web resources and services.